createdAt,value
2017-05-08T00:02:12.685Z,10.65
2017-05-08T00:04:41.816Z,11.98
2017-05-08T00:07:11.608Z,11.03
2017-05-08T00:09:40.654Z,11.27
2017-05-08T00:12:09.721Z,10.85
2017-05-08T00:14:38.762Z,10.95
2017-05-08T00:17:07.824Z,10.63
2017-05-08T00:19:36.878Z,10.92
2017-05-08T00:22:05.945Z,10.63
2017-05-08T00:24:35.083Z,12.02
2017-05-08T00:27:04.880Z,11.45
2017-05-08T00:29:33.925Z,11.02
2017-05-08T00:32:02.988Z,11.22
2017-05-08T00:34:32.785Z,11.97
2017-05-08T00:37:01.845Z,12.10
2017-05-08T00:39:31.189Z,11.78
2017-05-08T00:42:00.992Z,11.62
2017-05-08T00:44:30.029Z,12.43
2017-05-08T00:46:59.223Z,16.33
2017-05-08T00:49:28.254Z,11.98
2017-05-08T00:51:57.399Z,11.57
2017-05-08T00:54:27.187Z,31.47
2017-05-08T00:56:57.111Z,14.23
2017-05-08T00:59:26.917Z,13.73
2017-05-08T01:01:56.702Z,12.82
2017-05-08T01:04:25.830Z,11.63
2017-05-08T01:06:55.604Z,12.53
2017-05-08T01:09:24.678Z,12.07
2017-05-08T01:11:53.732Z,12.45
2017-05-08T01:14:23.533Z,11.43
2017-05-08T01:16:53.314Z,11.83
2017-05-08T01:19:22.380Z,16.37
2017-05-08T01:21:51.420Z,19.45
2017-05-08T01:24:20.495Z,13.40
2017-05-08T01:26:49.636Z,15.67
2017-05-08T01:29:18.661Z,16.78
2017-05-08T01:31:47.813Z,13.15
2017-05-08T01:34:17.595Z,15.47
2017-05-08T01:36:46.652Z,15.72
2017-05-08T01:39:15.713Z,14.87
2017-05-08T01:41:45.520Z,14.53
2017-05-08T01:44:14.558Z,10.23
2017-05-08T01:46:43.629Z,10.17
2017-05-08T01:49:12.668Z,9.95
2017-05-08T01:51:41.725Z,10.60
2017-05-08T01:54:10.749Z,8.98
2017-05-08T01:56:39.893Z,7.85
2017-05-08T01:59:09.687Z,7.23
2017-05-08T02:01:38.809Z,7.82
2017-05-08T02:04:08.822Z,9.20
2017-05-08T02:06:38.612Z,9.87
2017-05-08T02:09:07.649Z,9.40
2017-05-08T02:11:36.698Z,10.17
2017-05-08T02:14:05.745Z,9.30
2017-05-08T02:16:34.771Z,9.62
2017-05-08T02:19:03.828Z,11.18
2017-05-08T02:21:32.856Z,12.05
2017-05-08T02:24:01.916Z,10.48
2017-05-08T02:26:30.947Z,11.48
2017-05-08T02:29:00.012Z,9.38
2017-05-08T02:31:29.032Z,9.63
2017-05-08T02:33:58.073Z,9.12
2017-05-08T02:36:27.845Z,9.07
2017-05-08T02:38:56.900Z,9.60
2017-05-08T02:41:25.967Z,11.48
2017-05-08T02:43:55.790Z,13.12
2017-05-08T02:46:24.865Z,12.20
2017-05-08T02:48:54.677Z,12.70
2017-05-08T02:51:24.473Z,12.48
2017-05-08T02:53:53.517Z,12.27
2017-05-08T02:56:22.577Z,12.37
2017-05-08T02:58:52.362Z,10.48
2017-05-08T03:01:21.412Z,10.67
2017-05-08T03:03:50.454Z,11.40
2017-05-08T03:06:19.497Z,9.48
2017-05-08T03:08:48.534Z,11.17
2017-05-08T03:11:17.589Z,10.98
2017-05-08T03:13:46.641Z,11.87
2017-05-08T03:16:15.684Z,11.60
2017-05-08T03:18:44.742Z,11.35
2017-05-08T03:21:14.664Z,11.78
2017-05-08T03:23:44.439Z,7.87
2017-05-08T03:26:13.509Z,9.18
2017-05-08T03:28:42.558Z,8.30
2017-05-08T03:31:12.338Z,10.03
2017-05-08T03:33:41.465Z,8.62
2017-05-08T03:36:11.251Z,10.20
2017-05-08T03:38:40.301Z,10.68
2017-05-08T03:41:09.373Z,13.03
2017-05-08T03:43:38.459Z,10.92
2017-05-08T03:46:08.272Z,11.35
2017-05-08T03:48:38.070Z,10.77
2017-05-08T03:51:07.108Z,11.17
2017-05-08T03:53:36.181Z,11.30
2017-05-08T03:56:05.954Z,11.20
2017-05-08T03:58:35.023Z,12.83
2017-05-08T04:01:04.059Z,11.32
2017-05-08T04:03:33.116Z,10.62
2017-05-08T04:06:02.147Z,11.12
2017-05-08T04:08:31.186Z,11.97
2017-05-08T04:11:00.240Z,9.67
2017-05-08T04:13:29.277Z,10.02
2017-05-08T04:15:58.332Z,9.32
2017-05-08T04:18:27.352Z,9.45
2017-05-08T04:20:56.410Z,9.63
2017-05-08T04:23:25.453Z,7.80
2017-05-08T04:25:54.618Z,8.35
2017-05-08T04:28:23.630Z,7.65
2017-05-08T04:30:52.676Z,8.98
2017-05-08T04:33:21.750Z,7.10
2017-05-08T04:35:50.818Z,7.25
2017-05-08T04:38:19.851Z,6.50
2017-05-08T04:40:48.898Z,5.10
2017-05-08T04:43:17.955Z,5.77
2017-05-08T04:45:46.997Z,6.03
2017-05-08T04:48:16.065Z,5.92
2017-05-08T04:50:45.848Z,4.70
2017-05-08T04:53:14.883Z,5.30
2017-05-08T04:55:43.979Z,4.97
2017-05-08T04:58:13.142Z,5.33
2017-05-08T05:00:42.214Z,5.88
2017-05-08T05:03:11.346Z,5.93
2017-05-08T05:05:41.177Z,4.02
2017-05-08T05:08:10.926Z,4.82
2017-05-08T05:10:40.017Z,5.28
2017-05-08T05:13:09.075Z,5.87
2017-05-08T05:15:38.116Z,4.83
2017-05-08T05:18:07.162Z,5.07
2017-05-08T05:20:36.296Z,5.87
2017-05-08T05:23:05.349Z,6.58
2017-05-08T05:25:34.381Z,6.23
2017-05-08T05:28:03.445Z,5.42
2017-05-08T05:30:32.499Z,6.48
2017-05-08T05:33:02.342Z,6.62
2017-05-08T05:35:32.130Z,7.02
2017-05-08T05:38:01.933Z,5.37
2017-05-08T05:40:31.001Z,6.93
2017-05-08T05:43:00.048Z,8.13
2017-05-08T05:45:29.883Z,7.12
2017-05-08T05:47:58.930Z,7.72
2017-05-08T05:50:27.992Z,7.70
2017-05-08T05:52:57.050Z,9.00
2017-05-08T05:55:26.838Z,7.98
2017-05-08T05:57:55.896Z,7.82
2017-05-08T06:00:24.940Z,15.60
2017-05-08T06:02:53.975Z,8.65
2017-05-08T06:05:23.005Z,7.93
2017-05-08T06:07:52.033Z,8.22
2017-05-08T06:10:21.086Z,8.87
2017-05-08T06:12:50.124Z,8.75
2017-05-08T06:15:19.202Z,8.97
2017-05-08T06:17:48.959Z,8.65
2017-05-08T06:20:18.012Z,9.02
2017-05-08T06:22:47.834Z,8.92
2017-05-08T06:25:17.613Z,8.57
2017-05-08T06:27:46.678Z,8.22
2017-05-08T06:30:15.703Z,9.27
2017-05-08T06:32:44.733Z,8.67
2017-05-08T06:35:13.762Z,8.30
2017-05-08T06:37:42.815Z,7.30
2017-05-08T06:40:11.893Z,7.72
2017-05-08T06:42:41.786Z,8.97
2017-05-08T06:45:10.833Z,8.22
2017-05-08T06:47:39.905Z,7.60
2017-05-08T06:50:09.685Z,6.90
2017-05-08T06:52:38.757Z,8.30
2017-05-08T06:55:07.901Z,6.75
2017-05-08T06:57:37.695Z,7.47
2017-05-08T07:00:07.497Z,7.20
2017-05-08T07:02:36.572Z,8.22
2017-05-08T07:05:05.604Z,7.85
2017-05-08T07:07:35.389Z,7.10
2017-05-08T07:10:04.442Z,11.55
2017-05-08T07:12:33.490Z,8.05
2017-05-08T07:15:02.551Z,8.47
2017-05-08T07:17:31.701Z,8.57
2017-05-08T07:20:01.489Z,7.72
2017-05-08T07:22:30.552Z,6.92
2017-05-08T07:24:59.607Z,8.93
2017-05-08T07:27:28.818Z,9.07
2017-05-08T07:29:57.857Z,8.40
2017-05-08T07:32:26.938Z,9.05
2017-05-08T07:34:56.087Z,8.73
2017-05-08T07:37:25.872Z,7.32
2017-05-08T07:39:54.923Z,7.58
2017-05-08T07:42:23.958Z,6.63
2017-05-08T07:44:53.013Z,9.48
2017-05-08T07:47:22.045Z,7.90
2017-05-08T07:49:51.173Z,6.40
2017-05-08T07:52:20.935Z,7.15
2017-05-08T07:54:50.073Z,6.48
2017-05-08T07:57:19.123Z,7.77
2017-05-08T07:59:48.157Z,7.70
2017-05-08T08:02:17.953Z,7.05
2017-05-08T08:04:47.769Z,5.43
2017-05-08T08:07:17.564Z,6.90
2017-05-08T08:09:46.601Z,6.13
2017-05-08T08:12:25.298Z,8.17
2017-05-08T08:14:55.414Z,6.25
2017-05-08T08:17:25.206Z,5.55
2017-05-08T08:19:54.238Z,6.85
2017-05-08T08:22:23.367Z,5.95
2017-05-08T08:24:52.423Z,5.88
2017-05-08T08:27:22.222Z,7.57
2017-05-08T08:29:52.047Z,7.35
2017-05-08T08:32:21.839Z,6.45
2017-05-08T08:34:51.628Z,6.58
2017-05-08T08:37:20.730Z,6.33
2017-05-08T08:39:50.725Z,5.83
2017-05-08T08:42:19.781Z,5.77
2017-05-08T08:44:48.840Z,18.95
2017-05-08T08:47:18.798Z,5.92
2017-05-08T08:49:48.713Z,7.00
2017-05-08T08:52:17.863Z,6.53
2017-05-08T08:54:46.913Z,6.17
2017-05-08T08:57:16.063Z,6.12
2017-05-08T08:59:45.843Z,6.55
2017-05-08T09:02:14.920Z,6.88
2017-05-08T09:04:43.954Z,6.70
2017-05-08T09:07:13.051Z,6.07
2017-05-08T09:09:42.098Z,6.80
2017-05-08T09:12:11.311Z,5.83
2017-05-08T09:14:40.376Z,7.52
2017-05-08T09:17:10.163Z,6.93
2017-05-08T09:19:39.936Z,6.75
2017-05-08T09:22:08.987Z,6.25
2017-05-08T09:24:38.089Z,6.48
2017-05-08T09:27:07.855Z,6.28
2017-05-08T09:29:36.932Z,6.43
2017-05-08T09:32:06.027Z,7.12
2017-05-08T09:34:35.078Z,6.82
2017-05-08T09:37:04.135Z,8.00
2017-05-08T09:39:33.197Z,7.08
2017-05-08T09:42:02.252Z,7.42
2017-05-08T09:44:31.346Z,8.20
2017-05-08T09:47:01.129Z,8.72
2017-05-08T09:49:30.241Z,8.83
2017-05-08T09:52:00.038Z,9.18
2017-05-08T09:54:29.098Z,9.27
2017-05-08T09:56:58.153Z,7.83
2017-05-08T09:59:27.954Z,9.35
2017-05-08T10:01:57.790Z,8.72
2017-05-08T10:04:27.570Z,9.18
2017-05-08T10:06:56.617Z,9.02
2017-05-08T10:09:25.674Z,10.88
2017-05-08T10:11:55.474Z,10.04
2017-05-08T10:14:24.530Z,11.80
2017-05-08T10:16:53.669Z,9.44
2017-05-08T10:19:23.485Z,10.18
2017-05-08T10:21:53.394Z,9.92
2017-05-08T10:24:23.193Z,7.30
2017-05-08T10:26:52.292Z,8.35
2017-05-08T10:29:21.325Z,8.22
2017-05-08T10:31:50.400Z,8.26
2017-05-08T10:34:20.182Z,7.33
2017-05-08T10:36:49.263Z,8.32
2017-05-08T10:39:18.308Z,7.84
2017-05-08T10:41:47.374Z,7.98
2017-05-08T10:44:16.419Z,9.00
2017-05-08T10:46:45.461Z,9.53
2017-05-08T10:49:14.512Z,9.65
2017-05-08T10:51:43.567Z,10.05
2017-05-08T10:54:13.385Z,11.58
2017-05-08T10:56:43.162Z,9.78
2017-05-08T10:59:12.241Z,9.85
2017-05-08T11:01:41.294Z,10.45
2017-05-08T11:04:10.456Z,9.48
2017-05-08T11:06:40.270Z,11.47
2017-05-08T11:09:09.352Z,10.77
2017-05-08T11:11:44.172Z,11.10
2017-05-08T11:14:13.253Z,13.68
2017-05-08T11:16:42.290Z,12.68
2017-05-08T11:19:12.090Z,13.60
2017-05-08T11:21:41.195Z,11.60
2017-05-08T11:24:10.290Z,10.02
2017-05-08T11:26:40.094Z,9.42
2017-05-08T11:29:09.155Z,11.50
2017-05-08T11:31:38.307Z,10.32
2017-05-08T11:34:08.072Z,9.60
2017-05-08T11:36:37.142Z,8.84
2017-05-08T11:39:06.173Z,9.22
2017-05-08T11:41:35.238Z,9.28
2017-05-08T11:44:04.295Z,7.62
2017-05-08T11:46:34.214Z,7.44
2017-05-08T11:49:03.996Z,8.20
2017-05-08T11:51:33.062Z,7.76
2017-05-08T11:54:02.100Z,7.84
2017-05-08T11:56:31.899Z,7.80
2017-05-08T11:59:00.940Z,8.36
2017-05-08T12:01:29.998Z,7.63
2017-05-08T12:03:59.032Z,8.60
2017-05-08T12:06:28.130Z,9.13
2017-05-08T12:08:57.162Z,8.44
2017-05-08T12:11:26.224Z,8.68
2017-05-08T12:13:55.366Z,8.64
2017-05-08T12:16:24.501Z,9.02
2017-05-08T12:18:53.537Z,8.30
2017-05-08T12:21:22.769Z,9.48
2017-05-08T12:23:51.995Z,9.82
2017-05-08T12:26:21.041Z,9.72
2017-05-08T12:28:50.120Z,10.70
2017-05-08T12:31:19.246Z,13.12
2017-05-08T12:33:49.052Z,14.10
2017-05-08T12:36:18.131Z,12.37
2017-05-08T12:38:47.225Z,12.58
2017-05-08T12:41:17.033Z,13.54
2017-05-08T12:43:46.106Z,14.66
2017-05-08T12:46:15.186Z,20.78
2017-05-08T12:48:44.233Z,13.16
2017-05-08T12:51:14.009Z,11.98
2017-05-08T12:53:43.154Z,10.64
2017-05-08T12:56:12.233Z,10.36
2017-05-08T12:58:41.302Z,10.20
2017-05-08T13:01:10.365Z,10.18
2017-05-08T13:03:39.405Z,10.62
2017-05-08T13:06:08.469Z,10.02
2017-05-08T13:08:37.527Z,8.68
2017-05-08T13:11:06.594Z,8.88
2017-05-08T13:13:35.631Z,9.22
2017-05-08T13:16:04.703Z,8.78
2017-05-08T13:18:33.752Z,9.00
2017-05-08T13:21:02.818Z,7.76
2017-05-08T13:23:31.867Z,8.16
2017-05-08T13:26:00.925Z,9.10
2017-05-08T13:28:30.180Z,10.02
2017-05-08T13:30:59.984Z,9.54
2017-05-08T13:33:29.795Z,9.27
2017-05-08T13:35:58.822Z,10.04
2017-05-08T13:38:27.891Z,9.00
2017-05-08T13:40:57.687Z,9.78
2017-05-08T13:43:26.745Z,9.40
2017-05-08T13:45:55.891Z,9.48
2017-05-08T13:48:24.921Z,10.00
2017-05-08T13:50:54.001Z,8.96
2017-05-08T13:53:23.776Z,9.50
2017-05-08T13:55:53.557Z,8.52
2017-05-08T13:58:22.620Z,8.82
2017-05-08T14:00:51.677Z,8.12
2017-05-08T14:03:21.474Z,10.12
2017-05-08T14:05:50.517Z,9.98
2017-05-08T14:08:19.565Z,10.04
2017-05-08T14:10:48.639Z,10.68
2017-05-08T14:13:17.708Z,9.68
2017-05-08T14:15:46.766Z,10.46
2017-05-08T14:18:16.574Z,8.80
2017-05-08T14:20:46.372Z,9.86
2017-05-08T14:23:15.433Z,9.26
2017-05-08T14:25:44.500Z,9.26
2017-05-08T14:28:13.561Z,10.40
2017-05-08T14:30:42.697Z,12.86
2017-05-08T14:33:11.736Z,12.98
2017-05-08T14:35:40.791Z,10.92
2017-05-08T14:38:09.846Z,12.76
2017-05-08T14:40:39.637Z,11.34
2017-05-08T14:43:09.458Z,10.80
2017-05-08T14:45:38.562Z,9.82
2017-05-08T14:48:07.609Z,12.36
2017-05-08T14:50:36.660Z,9.96
2017-05-08T14:53:06.475Z,10.48
2017-05-08T14:55:36.268Z,12.26
2017-05-08T14:58:05.299Z,9.00
2017-05-08T15:00:34.358Z,13.48
2017-05-08T15:03:03.402Z,11.82
2017-05-08T15:05:32.466Z,11.60
2017-05-08T15:08:02.248Z,10.44
2017-05-08T15:10:31.319Z,10.56
2017-05-08T15:15:35.799Z,11.30
2017-05-08T15:18:05.620Z,11.74
2017-05-08T15:20:34.690Z,10.72
2017-05-08T15:23:03.725Z,9.88
2017-05-08T15:25:32.779Z,10.90
2017-05-08T15:28:01.823Z,11.62
2017-05-08T15:30:30.871Z,11.02
2017-05-08T15:32:59.943Z,11.78
2017-05-08T15:35:29.006Z,11.86
2017-05-08T15:37:58.045Z,11.32
2017-05-08T15:40:27.346Z,11.42
2017-05-08T15:42:56.473Z,11.06
2017-05-08T15:45:26.271Z,11.66
2017-05-08T15:47:56.071Z,12.56
2017-05-08T15:50:25.138Z,11.98
2017-05-08T15:52:54.286Z,11.88
2017-05-08T15:55:24.068Z,11.38
2017-05-08T15:57:53.189Z,11.78
2017-05-08T16:00:22.968Z,13.02
2017-05-08T16:02:52.107Z,11.70
2017-05-08T16:05:22.007Z,10.32
2017-05-08T16:07:51.820Z,11.16
2017-05-08T16:10:20.890Z,10.42
2017-05-08T16:12:49.921Z,9.98
2017-05-08T16:15:18.973Z,10.78
2017-05-08T16:17:48.053Z,10.32
2017-05-08T16:20:17.193Z,10.48
2017-05-08T16:22:46.972Z,10.04
2017-05-08T16:25:16.086Z,9.90
2017-05-08T16:27:45.578Z,10.72
2017-05-08T16:30:14.615Z,10.96
2017-05-08T16:32:43.685Z,10.42
2017-05-08T16:35:13.462Z,10.32
2017-05-08T16:37:42.540Z,8.98
2017-05-08T16:40:11.589Z,10.06
2017-05-08T16:42:41.385Z,9.90
2017-05-08T16:45:10.409Z,9.86
2017-05-08T16:47:39.493Z,12.14
2017-05-08T16:50:09.301Z,10.40
2017-05-08T16:52:39.129Z,10.80
2017-05-08T16:55:08.190Z,9.56
2017-05-08T16:57:37.290Z,9.46
2017-05-08T17:00:06.323Z,9.98
2017-05-08T17:02:35.354Z,9.14
2017-05-08T17:05:04.425Z,10.04
2017-05-08T17:07:33.464Z,10.62
2017-05-08T17:10:03.277Z,10.58
2017-05-08T17:12:33.087Z,10.18
2017-05-08T17:15:02.192Z,9.52
2017-05-08T17:17:31.978Z,9.50
2017-05-08T17:20:01.048Z,9.78
2017-05-08T17:22:30.081Z,9.34
2017-05-08T17:24:59.881Z,9.98
2017-05-08T17:27:28.918Z,9.94
2017-05-08T17:29:57.989Z,9.80
2017-05-08T17:32:27.769Z,9.76
2017-05-08T17:34:56.826Z,9.76
2017-05-08T17:37:25.870Z,9.44
2017-05-08T17:39:54.955Z,9.26
2017-05-08T17:42:24.002Z,9.74
2017-05-08T17:44:53.102Z,11.66
2017-05-08T17:47:22.151Z,8.64
2017-05-08T17:49:51.206Z,8.74
2017-05-08T17:52:20.249Z,9.18
2017-05-08T17:54:50.085Z,9.26
2017-05-08T17:57:19.867Z,8.58
2017-05-08T17:59:49.009Z,8.80
2017-05-08T18:02:18.047Z,8.92
2017-05-08T18:04:47.120Z,8.18
2017-05-08T18:07:16.217Z,10.30
2017-05-08T18:09:45.260Z,8.90
2017-05-08T18:12:15.054Z,9.76
2017-05-08T18:14:45.047Z,9.18
2017-05-08T18:17:14.074Z,8.34
2017-05-08T18:19:43.904Z,8.72
2017-05-08T18:22:12.965Z,7.50
2017-05-08T18:24:42.003Z,8.70
2017-05-08T18:27:11.077Z,8.50
2017-05-08T18:29:40.863Z,8.40
2017-05-08T18:32:09.949Z,9.60
2017-05-08T18:34:38.987Z,11.00
2017-05-08T18:37:08.069Z,9.98
2017-05-08T18:39:37.853Z,10.46
2017-05-08T18:42:06.971Z,10.40
2017-05-08T18:44:36.801Z,10.40
2017-05-08T18:47:06.688Z,9.60
2017-05-08T18:49:35.749Z,9.62
2017-05-08T18:52:04.836Z,11.68
2017-05-08T18:54:33.866Z,10.44
2017-05-08T18:57:03.673Z,11.02
2017-05-08T18:59:32.733Z,10.84
2017-05-08T19:02:01.804Z,10.70
2017-05-08T19:04:30.878Z,10.16
2017-05-08T19:07:00.707Z,5.84
2017-05-08T19:09:29.773Z,6.08
2017-05-08T19:11:58.912Z,4.36
2017-05-08T19:17:02.309Z,4.54
2017-05-08T19:19:31.347Z,3.70
2017-05-08T19:22:00.381Z,4.44
2017-05-08T19:24:30.221Z,4.22
2017-05-08T19:26:59.250Z,3.74
2017-05-08T19:29:28.301Z,3.42
2017-05-08T19:31:57.360Z,3.58
2017-05-08T19:34:26.428Z,3.90
2017-05-08T19:36:55.566Z,3.63
2017-05-08T19:39:25.451Z,3.72
2017-05-08T19:41:54.527Z,3.72
2017-05-08T19:44:23.672Z,3.86
2017-05-08T19:46:52.725Z,4.48
2017-05-08T19:49:21.850Z,4.82
2017-05-08T19:51:51.766Z,3.95
2017-05-08T19:54:20.869Z,4.00
2017-05-08T19:56:50.015Z,4.18
2017-05-08T19:59:19.170Z,4.02
2017-05-08T20:01:49.051Z,3.94
2017-05-08T20:04:18.894Z,3.88
2017-05-08T20:06:47.988Z,4.05
2017-05-08T20:09:17.073Z,4.08
2017-05-08T20:11:46.870Z,6.45
2017-05-08T20:14:16.676Z,3.70
2017-05-08T20:16:45.737Z,4.67
2017-05-08T20:19:15.669Z,4.05
2017-05-08T20:21:44.708Z,3.78
2017-05-08T20:24:13.769Z,4.42
2017-05-08T20:26:42.870Z,4.12
2017-05-08T20:29:12.049Z,6.57
2017-05-08T20:31:41.105Z,4.48
2017-05-08T20:34:10.199Z,3.60
2017-05-08T20:36:39.222Z,4.05
2017-05-08T20:39:08.279Z,3.68
2017-05-08T20:41:37.322Z,3.52
2017-05-08T20:44:06.365Z,4.02
2017-05-08T20:46:35.425Z,3.83
2017-05-08T20:49:04.477Z,3.98
2017-05-08T20:51:33.541Z,3.78
2017-05-08T20:54:02.608Z,4.23
2017-05-08T20:56:32.486Z,4.27
2017-05-08T20:59:01.535Z,3.83
2017-05-08T21:01:31.345Z,3.78
2017-05-08T21:04:01.136Z,4.17
2017-05-08T21:06:30.183Z,3.92
2017-05-08T21:08:59.202Z,3.90
2017-05-08T21:11:28.262Z,3.42
2017-05-08T21:13:57.299Z,3.70
2017-05-08T21:16:26.342Z,4.22
2017-05-08T21:18:56.133Z,4.32
2017-05-08T21:21:25.929Z,4.50
2017-05-08T21:23:54.983Z,3.60
2017-05-08T21:26:24.002Z,3.52
2017-05-08T21:28:53.047Z,3.00
2017-05-08T21:31:22.079Z,3.52
2017-05-08T21:33:51.135Z,4.08
2017-05-08T21:36:20.182Z,3.82
2017-05-08T21:38:49.240Z,4.38
2017-05-08T21:41:18.316Z,4.12
2017-05-08T21:43:48.125Z,3.52
2017-05-08T21:46:17.145Z,3.78
2017-05-08T21:48:46.165Z,3.55
2017-05-08T21:51:15.213Z,3.85
2017-05-08T21:53:44.278Z,3.68
2017-05-08T21:56:13.378Z,2.78
2017-05-08T21:58:43.142Z,3.37
2017-05-08T22:01:12.214Z,3.93
2017-05-08T22:03:41.285Z,3.45
2017-05-08T22:06:11.041Z,3.65
2017-05-08T22:08:40.088Z,3.32
2017-05-08T22:11:09.849Z,3.77
2017-05-08T22:13:38.891Z,3.15
2017-05-08T22:16:08.661Z,3.52
2017-05-08T22:18:37.700Z,3.45
2017-05-08T22:21:07.495Z,3.48
2017-05-08T22:23:36.554Z,3.42
2017-05-08T22:26:05.609Z,4.05
2017-05-08T22:28:34.673Z,3.00
2017-05-08T22:31:03.698Z,2.75
2017-05-08T22:33:33.501Z,3.07
2017-05-08T22:36:03.269Z,3.53
2017-05-08T22:38:32.393Z,3.38
2017-05-08T22:41:01.450Z,3.03
2017-05-08T22:43:30.482Z,3.18
2017-05-08T22:45:59.529Z,2.92
2017-05-08T22:48:28.549Z,3.42
2017-05-08T22:50:57.590Z,2.92
2017-05-08T22:53:26.621Z,3.43
2017-05-08T22:55:55.661Z,2.95
2017-05-08T22:58:25.426Z,3.40
2017-05-08T23:00:54.491Z,2.93
2017-05-08T23:03:23.848Z,2.97
2017-05-08T23:05:52.862Z,2.97
2017-05-08T23:08:23.352Z,2.58
2017-05-08T23:10:52.370Z,3.08
2017-05-08T23:13:21.424Z,2.82
2017-05-08T23:15:50.443Z,3.03
2017-05-08T23:18:19.485Z,2.88
2017-05-08T23:20:48.534Z,2.88
2017-05-08T23:23:17.569Z,3.33
2017-05-08T23:25:46.591Z,3.05
2017-05-08T23:28:15.655Z,2.82
2017-05-08T23:30:44.695Z,2.60
2017-05-08T23:33:13.728Z,3.35
2017-05-08T23:35:43.501Z,3.40
2017-05-08T23:38:12.550Z,3.05
2017-05-08T23:40:41.587Z,2.80
2017-05-08T23:43:10.633Z,2.85
2017-05-08T23:45:39.676Z,3.28
2017-05-08T23:48:08.805Z,2.78
2017-05-08T23:50:37.894Z,3.32
2017-05-08T23:53:06.925Z,2.90
2017-05-08T23:55:35.957Z,2.87
2017-05-08T23:58:04.980Z,3.05
